Time;durP1;ratioP1;P1;durP2;ratioP2;P2;SDS_P1;SDS_P2;PMS_P1;PMS_P2;Temp;Humidity;BMP_temperature;BMP_pressure;BME280_temperature;BME280_humidity;BME280_pressure;Samples;Min_cycle;Max_cycle;Signal;HPM_P1;HPM_P2
2022/04/22 00:02:12;;;;;;;9.55;5.88;;;;;;;;;;5037704;28;20041;-73
2022/04/22 00:04:38;;;;;;;9.25;5.80;;;;;;;;;;5031228;28;20457;-73
2022/04/22 00:07:04;;;;;;;9.25;5.90;;;;;;;;;;5036718;28;20146;-73
2022/04/22 00:09:30;;;;;;;9.25;6.20;;;;;;;;;;5033351;28;20187;-73
2022/04/22 00:11:55;;;;;;;10.13;5.72;;;;;;;;;;5040255;28;20113;-73
2022/04/22 00:14:20;;;;;;;12.35;5.53;;;;;;;;;;5028507;28;20089;-73
2022/04/22 00:16:46;;;;;;;7.57;5.75;;;;;;;;;;5029833;28;20120;-73
2022/04/22 00:19:11;;;;;;;12.98;5.50;;;;;;;;;;5028986;28;20037;-73
2022/04/22 00:21:36;;;;;;;10.27;5.95;;;;;;;;;;5026529;28;20042;-73
2022/04/22 00:24:02;;;;;;;10.57;5.90;;;;;;;;;;5027297;28;20037;-73
2022/04/22 00:26:27;;;;;;;10.70;5.90;;;;;;;;;;5038748;28;20475;-73
2022/04/22 00:28:53;;;;;;;8.90;5.75;;;;;;;;;;5044687;28;20155;-73
2022/04/22 00:31:18;;;;;;;9.82;5.72;;;;;;;;;;5038866;28;20105;-73
2022/04/22 00:33:43;;;;;;;8.70;5.78;;;;;;;;;;5040334;28;20049;-73
2022/04/22 00:36:09;;;;;;;9.93;6.20;;;;;;;;;;5051371;28;20561;-73
2022/04/22 00:38:34;;;;;;;9.15;6.00;;;;;;;;;;5040382;28;20708;-73
2022/04/22 00:41:00;;;;;;;13.30;6.60;;;;;;;;;;5042560;28;20037;-73
2022/04/22 00:43:26;;;;;;;10.77;6.38;;;;;;;;;;5036179;28;20025;-73
2022/04/22 00:45:53;;;;;;;10.02;5.43;;;;;;;;;;5045667;28;20037;-73
2022/04/22 00:48:20;;;;;;;8.70;5.90;;;;;;;;;;5048142;28;20132;-73
2022/04/22 00:50:46;;;;;;;9.98;5.35;;;;;;;;;;5030542;28;20026;-73
2022/04/22 00:53:12;;;;;;;11.23;6.10;;;;;;;;;;5038923;28;20037;-73
2022/04/22 00:55:40;;;;;;;10.77;6.07;;;;;;;;;;5032814;28;20037;-73
2022/04/22 00:58:07;;;;;;;9.57;5.70;;;;;;;;;;5042793;28;20021;-73
2022/04/22 01:00:33;;;;;;;10.35;6.35;;;;;;;;;;5036854;28;20062;-73
2022/04/22 01:02:59;;;;;;;11.63;6.20;;;;;;;;;;5041074;28;20124;-73
2022/04/22 01:10:54;;;;;;;10.75;6.20;;;;;;;;;;5042136;28;20102;-74
2022/04/22 01:13:19;;;;;;;13.65;5.95;;;;;;;;;;5049284;28;20044;-73
2022/04/22 01:15:46;;;;;;;8.52;5.43;;;;;;;;;;5047148;28;20039;-74
2022/04/22 01:18:13;;;;;;;10.88;5.80;;;;;;;;;;5036882;28;20032;-73
2022/04/22 01:20:38;;;;;;;12.98;5.95;;;;;;;;;;5048670;28;20143;-73
2022/04/22 01:23:04;;;;;;;9.25;5.68;;;;;;;;;;5050129;28;20049;-73
2022/04/22 01:25:29;;;;;;;9.30;5.03;;;;;;;;;;5045289;28;20043;-73
2022/04/22 01:27:56;;;;;;;8.57;5.55;;;;;;;;;;5059875;28;20616;-73
2022/04/22 01:30:23;;;;;;;11.15;5.95;;;;;;;;;;5033081;28;20045;-73
2022/04/22 01:32:54;;;;;;;8.23;5.35;;;;;;;;;;5050245;28;20502;-72
2022/04/22 01:35:21;;;;;;;8.15;4.97;;;;;;;;;;5045936;28;20044;-73
2022/04/22 01:37:47;;;;;;;9.90;5.35;;;;;;;;;;5049962;28;20037;-73
2022/04/22 01:40:13;;;;;;;8.75;4.60;;;;;;;;;;5040945;28;20107;-73
2022/04/22 01:42:38;;;;;;;7.97;5.15;;;;;;;;;;5037422;28;20036;-73
2022/04/22 01:45:05;;;;;;;7.47;4.60;;;;;;;;;;5042921;28;20100;-73
2022/04/22 01:47:30;;;;;;;10.88;5.05;;;;;;;;;;5046203;28;20028;-73
2022/04/22 01:49:56;;;;;;;10.48;5.20;;;;;;;;;;5049003;28;20037;-73
2022/04/22 01:52:22;;;;;;;6.93;4.70;;;;;;;;;;5041336;28;20099;-73
2022/04/22 01:54:51;;;;;;;9.82;5.07;;;;;;;;;;5035856;28;20029;-73
2022/04/22 01:57:16;;;;;;;13.20;5.15;;;;;;;;;;5041928;28;20028;-73
2022/04/22 01:59:44;;;;;;;7.25;4.50;;;;;;;;;;5028459;28;20014;-73
2022/04/22 02:02:09;;;;;;;8.63;5.25;;;;;;;;;;5032335;28;20527;-73
2022/04/22 02:04:35;;;;;;;7.75;5.10;;;;;;;;;;5029460;28;20088;-74
2022/04/22 02:07:00;;;;;;;7.82;5.20;;;;;;;;;;5027848;28;20116;-73
2022/04/22 02:09:26;;;;;;;9.50;4.93;;;;;;;;;;5039364;28;20065;-73
2022/04/22 02:11:51;;;;;;;9.63;5.47;;;;;;;;;;5028031;28;20026;-73
2022/04/22 02:14:16;;;;;;;9.82;5.35;;;;;;;;;;5041793;28;20045;-73
2022/04/22 02:16:42;;;;;;;7.80;4.30;;;;;;;;;;5042767;28;20075;-73
2022/04/22 02:19:07;;;;;;;8.13;5.28;;;;;;;;;;5028849;28;20398;-73
2022/04/22 02:21:32;;;;;;;7.93;4.95;;;;;;;;;;5027677;28;20537;-73
2022/04/22 02:23:58;;;;;;;8.27;5.05;;;;;;;;;;5037461;28;20502;-73
2022/04/22 02:26:23;;;;;;;11.00;5.35;;;;;;;;;;5039017;28;20145;-74
2022/04/22 02:28:48;;;;;;;10.23;5.40;;;;;;;;;;5047696;28;20060;-73
2022/04/22 02:31:14;;;;;;;8.95;5.40;;;;;;;;;;5045336;28;20217;-73
2022/04/22 02:33:41;;;;;;;7.32;4.93;;;;;;;;;;5047425;28;20115;-73
2022/04/22 02:36:08;;;;;;;10.63;5.82;;;;;;;;;;5042410;28;20502;-73
2022/04/22 02:38:34;;;;;;;12.93;5.47;;;;;;;;;;5034729;28;20085;-73
2022/04/22 02:46:28;;;;;;;8.93;5.40;;;;;;;;;;5040483;28;20040;-73
2022/04/22 02:49:00;;;;;;;9.32;5.40;;;;;;;;;;5036583;28;20037;-73
2022/04/22 02:51:26;;;;;;;9.13;5.75;;;;;;;;;;5045238;28;20625;-73
2022/04/22 02:53:52;;;;;;;10.65;5.38;;;;;;;;;;5031583;28;20056;-73
2022/04/22 02:56:21;;;;;;;9.00;5.20;;;;;;;;;;5037899;28;20069;-73
2022/04/22 02:58:48;;;;;;;10.40;5.30;;;;;;;;;;5034844;28;20053;-73
2022/04/22 03:01:17;;;;;;;12.65;6.13;;;;;;;;;;5028829;28;20117;-73
2022/04/22 03:03:44;;;;;;;9.50;5.82;;;;;;;;;;5047709;28;20045;-73
2022/04/22 03:06:09;;;;;;;10.70;6.07;;;;;;;;;;5045000;28;20483;-73
2022/04/22 03:08:34;;;;;;;11.15;5.90;;;;;;;;;;5048314;28;20104;-73
2022/04/22 03:11:00;;;;;;;12.90;6.45;;;;;;;;;;5045972;28;20037;-73
2022/04/22 03:13:25;;;;;;;9.63;6.20;;;;;;;;;;5047148;28;20533;-73
2022/04/22 03:15:50;;;;;;;10.38;5.82;;;;;;;;;;5046766;28;20033;-73
2022/04/22 03:18:16;;;;;;;10.73;6.15;;;;;;;;;;5031131;28;20057;-73
2022/04/22 03:20:41;;;;;;;10.48;6.75;;;;;;;;;;5044661;28;20380;-73
2022/04/22 03:23:07;;;;;;;10.48;5.95;;;;;;;;;;5043061;28;20029;-73
2022/04/22 03:25:32;;;;;;;9.05;6.25;;;;;;;;;;5047299;28;20041;-73
2022/04/22 03:27:57;;;;;;;12.50;6.07;;;;;;;;;;5056879;28;20064;-73
2022/04/22 03:30:22;;;;;;;12.68;6.65;;;;;;;;;;5047772;28;20529;-73
2022/04/22 03:32:48;;;;;;;11.02;6.45;;;;;;;;;;5037877;28;20036;-73
2022/04/22 03:35:13;;;;;;;11.50;6.22;;;;;;;;;;5037152;28;20033;-73
2022/04/22 03:37:41;;;;;;;14.82;6.80;;;;;;;;;;5039609;28;20056;-73
2022/04/22 03:40:09;;;;;;;12.02;6.40;;;;;;;;;;5037699;28;20059;-73
2022/04/22 03:42:36;;;;;;;13.15;7.25;;;;;;;;;;5046382;28;20040;-73
2022/04/22 03:45:01;;;;;;;10.70;6.78;;;;;;;;;;5047219;28;20452;-73
2022/04/22 03:47:26;;;;;;;12.45;6.72;;;;;;;;;;5046954;28;20021;-73
2022/04/22 03:49:51;;;;;;;12.38;6.90;;;;;;;;;;5045437;28;20033;-73
2022/04/22 03:52:17;;;;;;;12.45;6.78;;;;;;;;;;5046876;28;20044;-73
2022/04/22 03:54:42;;;;;;;16.40;7.70;;;;;;;;;;5046746;28;20528;-72
2022/04/22 03:59:54;;;;;;;14.68;7.13;;;;;;;;;;5028333;28;20075;-73
2022/04/22 04:02:20;;;;;;;15.68;7.57;;;;;;;;;;5026900;28;20506;-73
2022/04/22 04:04:45;;;;;;;12.35;7.35;;;;;;;;;;5026345;28;20041;-73
2022/04/22 04:07:10;;;;;;;12.65;7.57;;;;;;;;;;5026269;28;20034;-73
2022/04/22 04:17:47;;;;;;;14.63;7.55;;;;;;;;;;5037707;28;20028;-73
2022/04/22 04:23:14;;;;;;;12.90;7.63;;;;;;;;;;5045719;28;20031;-73
2022/04/22 04:25:40;;;;;;;12.88;7.18;;;;;;;;;;5045836;28;20037;-73
2022/04/22 04:28:09;;;;;;;20.42;8.52;;;;;;;;;;5042514;28;20150;-73
2022/04/22 04:30:38;;;;;;;17.30;8.60;;;;;;;;;;5047006;28;20045;-73
2022/04/22 04:33:05;;;;;;;17.88;8.75;;;;;;;;;;5046107;28;20716;-73
2022/04/22 04:35:30;;;;;;;16.83;8.23;;;;;;;;;;5047529;28;20449;-72
2022/04/22 04:37:56;;;;;;;13.77;8.10;;;;;;;;;;5045235;28;20037;-72
2022/04/22 04:40:21;;;;;;;17.98;8.70;;;;;;;;;;5046452;28;20507;-72
2022/04/22 04:42:46;;;;;;;15.10;8.20;;;;;;;;;;5050755;28;20565;-72
2022/04/22 04:45:12;;;;;;;16.08;8.50;;;;;;;;;;5049632;28;20025;-73
2022/04/22 04:47:41;;;;;;;13.80;8.25;;;;;;;;;;5046399;28;20028;-72
2022/04/22 04:50:08;;;;;;;17.05;8.52;;;;;;;;;;5048566;28;20039;-73
2022/04/22 04:52:34;;;;;;;18.70;8.45;;;;;;;;;;5048382;28;20090;-73
2022/04/22 04:55:00;;;;;;;20.95;10.13;;;;;;;;;;5049197;28;20106;-73
2022/04/22 04:57:26;;;;;;;18.15;9.02;;;;;;;;;;5050275;28;20037;-73
2022/04/22 04:59:51;;;;;;;16.33;8.77;;;;;;;;;;5047261;28;20457;-73
2022/04/22 05:02:16;;;;;;;17.42;9.23;;;;;;;;;;5037161;28;20106;-73
2022/04/22 05:04:42;;;;;;;18.98;9.60;;;;;;;;;;5042915;28;20045;-73
2022/04/22 05:07:07;;;;;;;18.20;9.25;;;;;;;;;;5038855;28;20045;-73
2022/04/22 05:09:32;;;;;;;15.13;8.88;;;;;;;;;;5036095;28;20042;-73
2022/04/22 05:11:58;;;;;;;21.02;9.80;;;;;;;;;;5031046;28;20026;-73
2022/04/22 05:14:26;;;;;;;19.30;9.38;;;;;;;;;;5041546;28;20103;-73
2022/04/22 05:16:51;;;;;;;18.25;9.07;;;;;;;;;;5033023;28;20039;-73
2022/04/22 05:19:18;;;;;;;19.05;9.98;;;;;;;;;;5046522;28;20041;-73
2022/04/22 05:21:44;;;;;;;18.08;10.07;;;;;;;;;;5046883;28;20738;-73
2022/04/22 05:24:09;;;;;;;15.43;9.05;;;;;;;;;;5037934;28;20032;-73
2022/04/22 05:26:34;;;;;;;17.85;9.88;;;;;;;;;;5030544;28;20069;-73
2022/04/22 05:28:59;;;;;;;18.60;9.75;;;;;;;;;;5049665;28;20047;-72
2022/04/22 05:34:09;;;;;;;18.15;9.27;;;;;;;;;;5049670;28;20044;-73
2022/04/22 05:36:34;;;;;;;15.95;9.48;;;;;;;;;;5046723;28;20453;-73
2022/04/22 05:39:00;;;;;;;20.30;9.40;;;;;;;;;;5047533;28;20032;-73
2022/04/22 05:41:25;;;;;;;20.85;9.63;;;;;;;;;;5048976;28;20052;-73
2022/04/22 05:43:51;;;;;;;17.88;8.90;;;;;;;;;;5047053;28;20179;-73
2022/04/22 05:46:17;;;;;;;18.95;9.60;;;;;;;;;;5033619;28;20804;-73
2022/04/22 05:48:42;;;;;;;15.23;9.73;;;;;;;;;;5035181;28;20098;-73
2022/04/22 05:51:08;;;;;;;19.15;10.77;;;;;;;;;;5028662;28;20048;-75
2022/04/22 05:53:33;;;;;;;18.95;10.15;;;;;;;;;;5032035;28;20037;-73
2022/04/22 05:55:58;;;;;;;18.17;9.80;;;;;;;;;;5037205;28;20042;-73
2022/04/22 05:58:24;;;;;;;19.52;10.85;;;;;;;;;;5047044;28;20099;-75
2022/04/22 06:00:49;;;;;;;19.23;10.43;;;;;;;;;;5046081;28;20126;-73
2022/04/22 06:03:15;;;;;;;20.23;10.15;;;;;;;;;;5046809;28;20049;-77
2022/04/22 06:05:40;;;;;;;18.85;10.23;;;;;;;;;;5034666;28;20065;-77
2022/04/22 06:10:51;;;;;;;20.83;10.95;;;;;;;;;;5044046;28;20048;-78
2022/04/22 06:13:17;;;;;;;18.10;9.65;;;;;;;;;;5046890;28;20414;-75
2022/04/22 06:15:42;;;;;;;21.95;10.20;;;;;;;;;;5041634;28;20045;-71
2022/04/22 06:18:08;;;;;;;19.65;8.50;;;;;;;;;;5026249;28;20032;-72
2022/04/22 06:20:33;;;;;;;16.58;9.13;;;;;;;;;;5036028;28;20033;-74
2022/04/22 06:23:00;;;;;;;20.60;10.80;;;;;;;;;;5046793;28;20056;-75
2022/04/22 06:25:26;;;;;;;17.48;10.35;;;;;;;;;;5032507;28;20037;-74
2022/04/22 06:27:51;;;;;;;19.60;10.98;;;;;;;;;;5043249;28;20037;-73
2022/04/22 06:30:19;;;;;;;21.50;10.38;;;;;;;;;;5047396;28;20071;-71
2022/04/22 06:32:46;;;;;;;19.77;10.32;;;;;;;;;;5044404;28;20562;-71
2022/04/22 06:35:13;;;;;;;23.42;10.73;;;;;;;;;;5044023;28;20192;-75
2022/04/22 06:37:44;;;;;;;22.73;11.07;;;;;;;;;;5029101;28;20034;-77
2022/04/22 06:45:47;;;;;;;20.65;10.20;;;;;;;;;;5037746;28;21201;-80
2022/04/22 06:48:14;;;;;;;19.63;9.80;;;;;;;;;;5037194;28;20409;-74
2022/04/22 06:50:40;;;;;;;17.00;9.55;;;;;;;;;;5036974;28;20402;-81
2022/04/22 06:53:06;;;;;;;22.90;10.60;;;;;;;;;;5030678;28;20045;-77
2022/04/22 06:55:32;;;;;;;19.20;10.20;;;;;;;;;;5028659;28;20104;-81
2022/04/22 06:58:00;;;;;;;20.83;10.95;;;;;;;;;;5034607;28;20037;-82
2022/04/22 07:00:25;;;;;;;19.13;9.65;;;;;;;;;;5029500;28;20083;-81
2022/04/22 07:02:51;;;;;;;23.42;11.15;;;;;;;;;;5035388;28;20037;-72
2022/04/22 07:05:17;;;;;;;21.67;11.30;;;;;;;;;;5030410;28;20494;-73
2022/04/22 07:07:43;;;;;;;19.25;11.10;;;;;;;;;;5030033;28;20042;-71
2022/04/22 07:10:09;;;;;;;19.33;10.07;;;;;;;;;;5037647;28;20051;-74
2022/04/22 07:12:34;;;;;;;21.13;10.75;;;;;;;;;;5037833;28;20037;-73
2022/04/22 07:15:03;;;;;;;20.85;10.70;;;;;;;;;;5042731;28;20047;-73
2022/04/22 07:17:36;;;;;;;20.08;10.65;;;;;;;;;;5029648;28;20032;-72
2022/04/22 07:20:05;;;;;;;22.60;10.60;;;;;;;;;;5039820;28;20465;-73
2022/04/22 07:22:36;;;;;;;21.60;10.75;;;;;;;;;;5033981;28;20361;-72
2022/04/22 07:25:03;;;;;;;20.92;10.80;;;;;;;;;;5038191;28;20087;-73
2022/04/22 07:27:33;;;;;;;23.17;10.95;;;;;;;;;;5037951;28;20044;-75
2022/04/22 07:29:59;;;;;;;18.70;10.60;;;;;;;;;;5038152;28;20031;-76
2022/04/22 07:32:26;;;;;;;19.30;10.45;;;;;;;;;;5039561;28;20032;-77
2022/04/22 07:34:54;;;;;;;23.52;11.50;;;;;;;;;;5034377;28;20033;-78
2022/04/22 07:37:20;;;;;;;21.48;11.35;;;;;;;;;;5037080;28;20074;-74
2022/04/22 07:39:45;;;;;;;18.48;9.35;;;;;;;;;;5030897;28;20041;-72
2022/04/22 07:42:15;;;;;;;23.02;11.18;;;;;;;;;;5035871;28;20065;-74
2022/04/22 07:47:29;;;;;;;19.23;11.00;;;;;;;;;;5028132;28;20040;-70
2022/04/22 07:49:54;;;;;;;20.27;10.38;;;;;;;;;;5032035;28;20551;-70
2022/04/22 07:52:20;;;;;;;17.83;10.32;;;;;;;;;;5034858;28;20133;-73
2022/04/22 07:54:45;;;;;;;21.25;11.23;;;;;;;;;;5035398;28;20418;-73
2022/04/22 07:57:10;;;;;;;16.27;8.73;;;;;;;;;;5033336;28;20013;-73
2022/04/22 07:59:36;;;;;;;21.00;10.25;;;;;;;;;;5034361;28;20028;-72
2022/04/22 08:02:02;;;;;;;22.30;11.60;;;;;;;;;;5041225;28;20029;-76
2022/04/22 08:04:27;;;;;;;20.90;11.05;;;;;;;;;;5030126;28;20128;-80
2022/04/22 08:06:52;;;;;;;20.98;10.35;;;;;;;;;;5042113;28;20179;-71
2022/04/22 08:09:18;;;;;;;22.35;11.70;;;;;;;;;;5029358;28;20452;-74
2022/04/22 08:11:43;;;;;;;18.42;10.50;;;;;;;;;;5033470;28;20024;-74
2022/04/22 08:14:12;;;;;;;16.48;9.23;;;;;;;;;;5030350;28;20033;-74
2022/04/22 08:16:38;;;;;;;18.77;9.75;;;;;;;;;;5015593;28;20042;-75
2022/04/22 08:19:03;;;;;;;20.13;10.95;;;;;;;;;;4968428;28;20103;-74
2022/04/22 08:21:38;;;;;;;19.83;10.20;;;;;;;;;;4972126;28;20032;-75
2022/04/22 08:24:04;;;;;;;19.55;10.50;;;;;;;;;;5010262;28;20025;-75
2022/04/22 08:26:32;;;;;;;21.58;11.10;;;;;;;;;;5036267;28;20067;-74
2022/04/22 08:28:58;;;;;;;20.90;10.57;;;;;;;;;;5037294;28;20043;-73
2022/04/22 08:31:23;;;;;;;20.75;10.90;;;;;;;;;;5035013;28;20114;-74
2022/04/22 08:33:49;;;;;;;21.80;10.43;;;;;;;;;;5039170;28;20414;-76
2022/04/22 08:36:15;;;;;;;18.65;10.13;;;;;;;;;;5038017;28;20021;-77
2022/04/22 08:38:41;;;;;;;19.90;10.93;;;;;;;;;;5036542;28;20740;-78
2022/04/22 08:41:09;;;;;;;18.00;9.57;;;;;;;;;;5045192;28;20025;-78
2022/04/22 08:43:35;;;;;;;20.48;10.18;;;;;;;;;;5036392;28;20429;-74
2022/04/22 08:46:00;;;;;;;19.77;11.23;;;;;;;;;;5033599;28;20038;-74
2022/04/22 08:51:10;;;;;;;27.73;11.05;;;;;;;;;;5043467;28;20142;-80
2022/04/22 08:53:38;;;;;;;19.70;10.40;;;;;;;;;;5035535;28;20506;-73
2022/04/22 08:56:07;;;;;;;22.02;10.63;;;;;;;;;;5027231;28;21399;-70
2022/04/22 08:58:36;;;;;;;17.70;10.02;;;;;;;;;;5034017;28;20029;-71
2022/04/22 09:01:01;;;;;;;22.80;10.88;;;;;;;;;;5036745;28;20040;-75
2022/04/22 09:03:28;;;;;;;24.02;10.70;;;;;;;;;;5032343;28;20045;-75
2022/04/22 09:05:58;;;;;;;20.75;10.52;;;;;;;;;;5031992;28;20026;-76
2022/04/22 09:08:28;;;;;;;20.08;11.05;;;;;;;;;;5036065;28;20056;-76
2022/04/22 09:10:54;;;;;;;20.23;10.63;;;;;;;;;;5031637;28;20128;-71
2022/04/22 09:13:27;;;;;;;21.42;11.13;;;;;;;;;;5040612;28;20502;-75
2022/04/22 09:15:54;;;;;;;21.35;10.93;;;;;;;;;;5038426;28;20522;-73
2022/04/22 09:18:23;;;;;;;21.95;10.90;;;;;;;;;;5034957;28;20045;-75
2022/04/22 09:20:49;;;;;;;19.17;10.63;;;;;;;;;;5036972;28;20079;-75
2022/04/22 09:23:28;;;;;;;17.90;10.45;;;;;;;;;;5038590;28;20037;-74
2022/04/22 09:25:53;;;;;;;19.50;10.25;;;;;;;;;;5039906;28;20426;-76
2022/04/22 09:28:19;;;;;;;18.58;10.52;;;;;;;;;;5046060;28;20072;-75
2022/04/22 09:31:01;;;;;;;21.33;10.60;;;;;;;;;;5036229;28;20128;-83
2022/04/22 09:33:45;;;;;;;21.85;10.40;;;;;;;;;;5040010;28;20045;-76
2022/04/22 09:44:55;;;;;;;;;;;;;;;;;;5035712;28;20411;-77
2022/04/22 09:47:21;;;;;;;19.52;9.65;;;;;;;;;;5042486;28;19920;-74
2022/04/22 09:49:46;;;;;;;17.85;10.15;;;;;;;;;;5036126;28;20064;-75
2022/04/22 09:52:12;;;;;;;20.30;10.55;;;;;;;;;;5039745;28;20498;-76
2022/04/22 09:54:38;;;;;;;17.92;10.30;;;;;;;;;;5028289;28;20040;-75
2022/04/22 09:57:04;;;;;;;18.13;10.52;;;;;;;;;;5029645;28;20131;-75
2022/04/22 09:59:32;;;;;;;19.00;10.45;;;;;;;;;;5034384;28;20083;-79
2022/04/22 10:02:01;;;;;;;18.67;10.40;;;;;;;;;;5035797;28;20047;-77
2022/04/22 10:04:28;;;;;;;16.63;10.15;;;;;;;;;;5036726;28;20046;-75
2022/04/22 10:06:54;;;;;;;17.88;10.27;;;;;;;;;;5027736;28;20043;-72
2022/04/22 10:09:22;;;;;;;16.55;10.60;;;;;;;;;;5030113;28;22191;-72
2022/04/22 10:11:52;;;;;;;16.50;10.63;;;;;;;;;;5034030;28;20031;-75
2022/04/22 10:14:35;;;;;;;16.60;10.02;;;;;;;;;;5032188;28;20176;-77
2022/04/22 10:17:02;;;;;;;18.52;11.18;;;;;;;;;;5029252;28;20037;-81
2022/04/22 10:19:28;;;;;;;18.45;11.32;;;;;;;;;;5030744;28;20608;-76
2022/04/22 10:21:53;;;;;;;17.45;10.25;;;;;;;;;;5031039;28;20157;-77
2022/04/22 10:24:21;;;;;;;21.60;10.90;;;;;;;;;;5028531;28;20068;-74
2022/04/22 10:26:47;;;;;;;17.85;10.10;;;;;;;;;;5029452;28;20037;-77
2022/04/22 10:29:13;;;;;;;18.95;11.13;;;;;;;;;;5032115;28;20068;-74
2022/04/22 10:31:39;;;;;;;17.83;9.63;;;;;;;;;;5041835;28;20057;-79
2022/04/22 10:34:08;;;;;;;15.80;9.00;;;;;;;;;;5039267;28;20518;-79
2022/04/22 10:36:34;;;;;;;14.43;8.50;;;;;;;;;;5039389;28;20052;-79
2022/04/22 10:38:59;;;;;;;16.77;9.00;;;;;;;;;;5031542;28;20061;-79
2022/04/22 10:41:25;;;;;;;17.70;10.20;;;;;;;;;;5027624;28;20057;-79
2022/04/22 10:49:46;;;;;;;15.60;9.48;;;;;;;;;;5016780;28;20045;-76
2022/04/22 10:52:18;;;;;;;14.75;8.90;;;;;;;;;;5019700;28;20044;-77
2022/04/22 10:54:53;;;;;;;13.93;8.67;;;;;;;;;;5029438;28;20052;-76
2022/04/22 10:57:23;;;;;;;14.32;9.20;;;;;;;;;;5025540;28;20283;-76
2022/04/22 11:00:07;;;;;;;13.98;8.07;;;;;;;;;;5031517;28;20026;-76
2022/04/22 11:02:40;;;;;;;16.13;9.27;;;;;;;;;;5035300;28;20049;-76
2022/04/22 11:05:20;;;;;;;15.23;8.45;;;;;;;;;;5036231;28;20037;-75
2022/04/22 11:07:57;;;;;;;16.23;8.32;;;;;;;;;;5038240;28;20037;-76
2022/04/22 11:10:49;;;;;;;15.60;8.50;;;;;;;;;;5034030;28;20045;-76
2022/04/22 11:13:28;;;;;;;13.70;8.55;;;;;;;;;;5042623;28;20538;-76
2022/04/22 11:15:57;;;;;;;15.25;8.68;;;;;;;;;;5032850;28;20688;-73
2022/04/22 11:18:22;;;;;;;15.82;8.88;;;;;;;;;;5037121;28;20596;-73
2022/04/22 11:20:52;;;;;;;17.85;8.35;;;;;;;;;;5029853;28;20017;-74
2022/04/22 11:23:17;;;;;;;13.93;8.18;;;;;;;;;;5037059;28;20041;-72
2022/04/22 11:25:44;;;;;;;9.63;5.50;;;;;;;;;;5039558;28;20037;-78
2022/04/22 11:28:10;;;;;;;14.48;7.30;;;;;;;;;;5035185;28;20100;-75
2022/04/22 11:30:36;;;;;;;15.43;8.48;;;;;;;;;;5043774;28;20577;-74
2022/04/22 11:33:22;;;;;;;10.70;6.45;;;;;;;;;;5038140;28;20037;-75
2022/04/22 11:35:58;;;;;;;10.77;6.18;;;;;;;;;;5041578;28;20025;-76
2022/04/22 11:38:24;;;;;;;12.20;6.45;;;;;;;;;;5025347;28;20127;-77
2022/04/22 11:40:50;;;;;;;10.07;6.30;;;;;;;;;;5039881;28;20033;-75
2022/04/22 11:43:18;;;;;;;12.25;6.70;;;;;;;;;;5040501;28;20043;-75
2022/04/22 11:45:49;;;;;;;12.23;6.53;;;;;;;;;;5041586;28;20065;-75
2022/04/22 11:48:19;;;;;;;11.05;7.22;;;;;;;;;;5028478;28;20041;-76
2022/04/22 11:50:46;;;;;;;12.63;7.32;;;;;;;;;;5039135;28;20037;-74
2022/04/22 11:53:26;;;;;;;12.93;6.68;;;;;;;;;;5033457;28;20057;-76
2022/04/22 11:55:52;;;;;;;13.20;7.25;;;;;;;;;;5034834;28;20043;-75
2022/04/22 11:58:24;;;;;;;12.25;7.22;;;;;;;;;;5031839;28;20029;-74
2022/04/22 12:06:21;;;;;;;13.38;8.10;;;;;;;;;;5037360;28;20119;-72
2022/04/22 12:08:56;;;;;;;11.48;7.35;;;;;;;;;;5036283;28;20075;-72
2022/04/22 12:11:22;;;;;;;14.07;7.82;;;;;;;;;;5032373;28;20060;-72
2022/04/22 12:13:49;;;;;;;11.60;7.78;;;;;;;;;;5040333;28;20037;-72
2022/04/22 12:16:22;;;;;;;14.50;8.23;;;;;;;;;;5036990;28;20060;-76
2022/04/22 12:18:49;;;;;;;14.13;8.35;;;;;;;;;;5034791;28;20098;-75
2022/04/22 12:21:16;;;;;;;15.90;8.85;;;;;;;;;;5042265;28;20025;-78
2022/04/22 12:23:43;;;;;;;14.30;8.25;;;;;;;;;;5036096;28;20123;-76
2022/04/22 12:26:18;;;;;;;12.70;7.90;;;;;;;;;;5028566;28;20048;-75
2022/04/22 12:29:06;;;;;;;14.02;8.20;;;;;;;;;;5037595;28;20037;-76
2022/04/22 12:31:32;;;;;;;15.27;9.20;;;;;;;;;;5028618;28;20048;-74
2022/04/22 12:34:05;;;;;;;14.43;8.52;;;;;;;;;;5030796;28;20045;-74
2022/04/22 12:36:34;;;;;;;13.60;8.98;;;;;;;;;;5029099;28;20040;-75
2022/04/22 12:39:00;;;;;;;17.30;9.07;;;;;;;;;;5032371;28;20017;-76
2022/04/22 12:41:25;;;;;;;14.20;8.95;;;;;;;;;;5032691;28;20434;-74
2022/04/22 12:43:55;;;;;;;15.68;9.82;;;;;;;;;;5031964;28;20128;-75
2022/04/22 12:52:20;;;;;;;16.40;9.95;;;;;;;;;;5029387;28;20048;-75
2022/04/22 12:54:48;;;;;;;16.98;10.63;;;;;;;;;;5034666;28;20849;-76
2022/04/22 12:57:23;;;;;;;16.65;10.60;;;;;;;;;;5028368;28;20092;-75
2022/04/22 12:59:56;;;;;;;16.65;10.88;;;;;;;;;;5031265;28;20025;-77
2022/04/22 13:02:29;;;;;;;19.40;10.80;;;;;;;;;;5032892;28;20033;-78
2022/04/22 13:04:59;;;;;;;18.63;11.65;;;;;;;;;;5036263;28;20038;-76
2022/04/22 13:07:38;;;;;;;18.30;11.55;;;;;;;;;;5034200;28;20044;-74
2022/04/22 13:10:04;;;;;;;19.88;12.35;;;;;;;;;;5035740;28;20063;-74
2022/04/22 13:12:29;;;;;;;19.00;11.20;;;;;;;;;;5039166;28;20048;-74
2022/04/22 13:14:54;;;;;;;21.98;12.35;;;;;;;;;;5034996;28;20024;-75
2022/04/22 13:17:22;;;;;;;18.17;11.75;;;;;;;;;;5041200;28;20060;-76
2022/04/22 13:19:48;;;;;;;20.38;11.75;;;;;;;;;;5043301;28;20032;-76
2022/04/22 13:22:13;;;;;;;23.02;11.98;;;;;;;;;;5036910;28;20106;-74
2022/04/22 13:24:40;;;;;;;20.42;12.27;;;;;;;;;;5036515;28;20056;-78
2022/04/22 13:27:07;;;;;;;19.70;11.70;;;;;;;;;;5032978;28;20031;-78
2022/04/22 13:29:32;;;;;;;20.67;12.80;;;;;;;;;;5031018;28;20013;-75
2022/04/22 13:31:57;;;;;;;20.92;12.25;;;;;;;;;;5031663;28;20033;-78
2022/04/22 13:34:23;;;;;;;17.83;10.48;;;;;;;;;;5038075;28;20108;-77
2022/04/22 13:36:48;;;;;;;18.90;12.25;;;;;;;;;;5039897;28;20036;-76
2022/04/22 13:39:13;;;;;;;20.40;11.68;;;;;;;;;;5037738;28;20099;-78
2022/04/22 13:41:39;;;;;;;18.25;11.50;;;;;;;;;;5036716;28;20063;-74
2022/04/22 13:44:04;;;;;;;18.55;11.13;;;;;;;;;;5030247;28;20039;-78
2022/04/22 13:54:41;;;;;;;;;;;;;;;;;;5039082;28;20192;-79
2022/04/22 13:57:06;;;;;;;15.33;9.93;;;;;;;;;;5035486;28;19991;-74
2022/04/22 13:59:33;;;;;;;14.20;9.85;;;;;;;;;;5036873;28;20263;-75
2022/04/22 14:01:59;;;;;;;15.70;10.30;;;;;;;;;;5030482;28;20045;-75
2022/04/22 14:04:24;;;;;;;17.33;10.77;;;;;;;;;;5040839;28;20045;-76
2022/04/22 14:06:49;;;;;;;16.85;10.70;;;;;;;;;;5038274;28;20901;-74
2022/04/22 14:09:15;;;;;;;16.25;9.95;;;;;;;;;;5036076;28;20402;-75
2022/04/22 14:11:40;;;;;;;17.20;9.75;;;;;;;;;;5034719;28;20082;-74
2022/04/22 14:14:05;;;;;;;14.02;9.23;;;;;;;;;;5039682;28;20036;-74
2022/04/22 14:16:31;;;;;;;16.42;10.10;;;;;;;;;;5038744;28;20025;-75
2022/04/22 14:18:56;;;;;;;14.13;9.02;;;;;;;;;;5032149;28;20037;-75
2022/04/22 14:21:22;;;;;;;15.85;9.80;;;;;;;;;;5038369;28;20029;-74
2022/04/22 14:23:47;;;;;;;15.65;9.40;;;;;;;;;;5035635;28;20510;-78
2022/04/22 14:26:13;;;;;;;15.05;9.18;;;;;;;;;;5007692;28;20041;-76
2022/04/22 14:28:38;;;;;;;16.70;9.68;;;;;;;;;;5033827;28;20031;-74
2022/04/22 14:31:04;;;;;;;13.93;9.45;;;;;;;;;;5037772;28;20072;-75
2022/04/22 14:33:29;;;;;;;14.77;9.70;;;;;;;;;;5036777;28;20044;-74
2022/04/22 14:35:55;;;;;;;16.25;8.48;;;;;;;;;;5036924;28;20037;-74
2022/04/22 14:38:20;;;;;;;14.77;8.40;;;;;;;;;;5039920;28;20041;-75
2022/04/22 14:40:45;;;;;;;15.93;9.85;;;;;;;;;;5037644;28;20899;-77
2022/04/22 14:43:11;;;;;;;15.73;9.45;;;;;;;;;;5038675;28;20125;-71
2022/04/22 14:45:37;;;;;;;16.50;9.98;;;;;;;;;;5036416;28;20033;-75
2022/04/22 14:48:03;;;;;;;14.70;9.27;;;;;;;;;;5044604;28;20044;-75
2022/04/22 14:50:30;;;;;;;15.30;9.73;;;;;;;;;;5046206;28;20040;-75
2022/04/22 14:52:56;;;;;;;14.50;9.68;;;;;;;;;;5045334;28;20033;-75
2022/04/22 14:55:22;;;;;;;16.73;8.32;;;;;;;;;;5037509;28;20114;-77
2022/04/22 14:57:47;;;;;;;13.70;9.02;;;;;;;;;;5020427;28;20037;-73
2022/04/22 15:00:13;;;;;;;14.23;8.57;;;;;;;;;;5037558;28;20612;-74
2022/04/22 15:02:39;;;;;;;13.57;8.00;;;;;;;;;;5031072;28;20068;-76
2022/04/22 15:05:08;;;;;;;12.15;8.25;;;;;;;;;;5030517;28;20688;-77
2022/04/22 15:07:34;;;;;;;13.77;8.63;;;;;;;;;;5039142;28;20021;-77
2022/04/22 15:10:00;;;;;;;15.27;9.63;;;;;;;;;;5038644;28;20094;-74
2022/04/22 15:12:28;;;;;;;14.15;9.27;;;;;;;;;;5040520;28;20099;-75
2022/04/22 15:14:53;;;;;;;15.48;9.80;;;;;;;;;;5031331;28;20045;-73
2022/04/22 15:24:09;;;;;;;15.65;10.38;;;;;;;;;;5028984;28;20410;-74
2022/04/22 15:25:34;;;;;;;16.42;10.43;;;;;;;;;;5037220;28;20128;-76
2022/04/22 15:27:59;;;;;;;16.73;11.05;;;;;;;;;;5034387;28;20515;-76
2022/04/22 15:31:05;;;;;;;17.17;10.80;;;;;;;;;;5031383;28;20128;-74
2022/04/22 15:33:30;;;;;;;17.42;10.95;;;;;;;;;;5035855;28;20041;-75
2022/04/22 15:35:55;;;;;;;15.75;10.60;;;;;;;;;;5034326;28;20041;-75
2022/04/22 15:38:22;;;;;;;15.63;10.23;;;;;;;;;;5036694;28;20041;-75
2022/04/22 15:40:47;;;;;;;15.35;10.32;;;;;;;;;;5039493;28;20047;-72
2022/04/22 15:43:13;;;;;;;17.88;10.52;;;;;;;;;;5044238;28;20103;-73
2022/04/22 15:45:39;;;;;;;15.40;10.02;;;;;;;;;;5029472;28;20049;-72
2022/04/22 15:48:05;;;;;;;13.38;9.65;;;;;;;;;;5030554;28;20533;-77
2022/04/22 15:50:31;;;;;;;15.55;10.05;;;;;;;;;;5036629;28;20136;-70